Time;durP1;ratioP1;P1;durP2;ratioP2;P2;SDS_P1;SDS_P2;PMS_P1;PMS_P2;Temp;Humidity;BMP_temperature;BMP_pressure;BME280_temperature;BME280_humidity;BME280_pressure;Samples;Min_cycle;Max_cycle;Signal;HPM_P1;HPM_P2
2023/07/21 00:00:10;;;;;;;1.70;1.20;;;;;;;;;;5019915;28;20224;-67
2023/07/21 00:02:39;;;;;;;2.45;1.40;;;;;;;;;;5022011;28;20200;-67
2023/07/21 00:05:06;;;;;;;2.20;1.50;;;;;;;;;;5016654;28;20200;-67
2023/07/21 00:07:35;;;;;;;2.80;1.42;;;;;;;;;;5019566;28;20208;-68
2023/07/21 00:10:07;;;;;;;1.10;1.10;;;;;;;;;;5025431;28;20204;-68
2023/07/21 00:12:34;;;;;;;4.40;1.38;;;;;;;;;;5023779;28;20204;-68
2023/07/21 00:15:01;;;;;;;1.77;1.20;;;;;;;;;;5023261;28;20221;-68
2023/07/21 00:17:30;;;;;;;2.95;1.33;;;;;;;;;;5022981;28;20239;-68
2023/07/21 00:20:04;;;;;;;1.83;1.20;;;;;;;;;;5029388;28;20212;-68
2023/07/21 00:22:31;;;;;;;1.20;1.02;;;;;;;;;;5021744;28;20196;-68
2023/07/21 00:25:00;;;;;;;1.45;1.30;;;;;;;;;;5028102;28;20203;-68
2023/07/21 00:27:27;;;;;;;2.00;1.25;;;;;;;;;;5025509;28;20287;-68
2023/07/21 00:29:55;;;;;;;2.60;1.50;;;;;;;;;;5035813;28;20197;-68
2023/07/21 00:32:22;;;;;;;3.55;1.50;;;;;;;;;;5022706;28;20251;-68
2023/07/21 00:34:49;;;;;;;2.10;1.20;;;;;;;;;;5025303;28;20315;-68
2023/07/21 00:37:18;;;;;;;2.50;1.35;;;;;;;;;;5023179;28;20204;-68
2023/07/21 00:39:47;;;;;;;3.95;1.52;;;;;;;;;;5028946;28;20266;-68
2023/07/21 00:42:14;;;;;;;1.40;1.20;;;;;;;;;;5029432;28;20200;-68
2023/07/21 00:44:41;;;;;;;2.10;1.20;;;;;;;;;;5024225;28;20204;-68
2023/07/21 00:47:09;;;;;;;2.75;1.30;;;;;;;;;;5025262;28;20213;-68
2023/07/21 00:49:37;;;;;;;2.55;1.50;;;;;;;;;;5028329;28;20253;-67
2023/07/21 00:52:04;;;;;;;2.35;1.05;;;;;;;;;;5025862;28;20204;-68
2023/07/21 00:54:33;;;;;;;2.15;1.17;;;;;;;;;;5021469;28;20239;-68
2023/07/21 00:57:00;;;;;;;2.08;1.33;;;;;;;;;;5021316;28;20200;-68
2023/07/21 00:59:27;;;;;;;1.25;1.13;;;;;;;;;;5022767;28;20213;-68
2023/07/21 01:01:54;;;;;;;2.53;1.30;;;;;;;;;;5024607;28;20236;-68
2023/07/21 01:04:22;;;;;;;1.90;1.20;;;;;;;;;;5020969;28;20204;-68
2023/07/21 01:06:49;;;;;;;1.48;1.20;;;;;;;;;;5021634;28;20219;-68
2023/07/21 01:09:18;;;;;;;2.30;1.38;;;;;;;;;;5029113;28;20205;-68
2023/07/21 01:11:47;;;;;;;1.42;1.33;;;;;;;;;;5021087;28;20205;-68
2023/07/21 01:14:14;;;;;;;2.38;1.35;;;;;;;;;;5026374;28;20231;-68
2023/07/21 01:16:43;;;;;;;2.17;1.70;;;;;;;;;;5028482;28;20245;-68
2023/07/21 01:19:13;;;;;;;2.35;1.25;;;;;;;;;;5026803;28;20215;-68
2023/07/21 01:21:43;;;;;;;3.22;1.60;;;;;;;;;;5021786;28;20204;-67
2023/07/21 01:24:14;;;;;;;1.33;1.20;;;;;;;;;;5024041;28;20230;-67
2023/07/21 01:34:24;;;;;;;2.13;1.30;;;;;;;;;;5004341;28;20221;-66
2023/07/21 01:36:51;;;;;;;1.67;1.50;;;;;;;;;;4992411;28;20197;-66
2023/07/21 01:39:19;;;;;;;1.40;1.30;;;;;;;;;;5004495;28;20215;-66
2023/07/21 01:41:46;;;;;;;1.83;1.30;;;;;;;;;;5007196;28;20503;-66
2023/07/21 01:44:13;;;;;;;2.05;1.55;;;;;;;;;;5003553;28;20209;-66
2023/07/21 01:46:41;;;;;;;2.45;1.30;;;;;;;;;;5006191;28;20255;-66
2023/07/21 01:49:08;;;;;;;2.88;1.50;;;;;;;;;;5004951;28;20217;-66
2023/07/21 01:51:37;;;;;;;1.60;1.33;;;;;;;;;;5005947;28;20206;-66
2023/07/21 01:54:06;;;;;;;1.67;1.35;;;;;;;;;;4998795;28;20237;-66
2023/07/21 01:56:37;;;;;;;1.85;1.40;;;;;;;;;;5006105;28;20288;-67
2023/07/21 01:59:06;;;;;;;2.42;1.42;;;;;;;;;;5003668;28;20209;-66
2023/07/21 02:01:34;;;;;;;2.65;1.40;;;;;;;;;;5005785;28;20208;-66
2023/07/21 02:04:01;;;;;;;1.75;1.40;;;;;;;;;;5003900;28;20205;-66
2023/07/21 02:06:29;;;;;;;2.25;1.30;;;;;;;;;;5003243;28;20213;-66
2023/07/21 02:08:57;;;;;;;1.50;1.40;;;;;;;;;;5003771;28;20343;-66
2023/07/21 02:11:24;;;;;;;2.80;1.30;;;;;;;;;;5005514;28;20212;-66
2023/07/21 02:13:52;;;;;;;2.75;1.20;;;;;;;;;;5004520;28;20221;-66
2023/07/21 02:16:19;;;;;;;1.58;1.33;;;;;;;;;;5007334;28;20208;-66
2023/07/21 02:18:46;;;;;;;3.20;1.25;;;;;;;;;;5004063;28;20204;-66
2023/07/21 02:21:13;;;;;;;1.88;1.30;;;;;;;;;;5004706;28;20317;-66
2023/07/21 02:28:59;;;;;;;1.73;1.30;;;;;;;;;;5030431;28;20219;-66
2023/07/21 02:31:26;;;;;;;1.40;1.30;;;;;;;;;;5030236;28;20212;-66
2023/07/21 02:33:53;;;;;;;1.52;1.42;;;;;;;;;;5032671;28;20254;-66
2023/07/21 02:36:20;;;;;;;2.10;1.30;;;;;;;;;;5030642;28;20218;-66
2023/07/21 02:38:48;;;;;;;1.75;1.35;;;;;;;;;;5027702;28;20223;-66
2023/07/21 02:41:15;;;;;;;1.55;1.42;;;;;;;;;;5029365;28;20261;-65
2023/07/21 02:46:13;;;;;;;1.70;1.35;;;;;;;;;;5001303;28;20223;-68
2023/07/21 02:48:40;;;;;;;1.55;1.40;;;;;;;;;;5002208;28;20252;-68
2023/07/21 02:51:07;;;;;;;2.55;1.60;;;;;;;;;;5004408;28;20205;-68
2023/07/21 02:53:34;;;;;;;1.33;1.23;;;;;;;;;;5002340;28;20200;-68
2023/07/21 02:56:03;;;;;;;2.80;1.40;;;;;;;;;;5005568;28;20225;-68
2023/07/21 02:58:30;;;;;;;1.75;1.40;;;;;;;;;;4998210;28;20263;-68
2023/07/21 03:00:58;;;;;;;1.80;1.27;;;;;;;;;;5001139;28;20316;-68
2023/07/21 03:03:27;;;;;;;1.33;1.23;;;;;;;;;;5004332;28;20211;-67
2023/07/21 03:05:54;;;;;;;1.40;1.30;;;;;;;;;;5003125;28;20206;-67
2023/07/21 03:08:26;;;;;;;1.40;1.20;;;;;;;;;;5001164;28;20200;-67
2023/07/21 03:10:55;;;;;;;1.55;1.40;;;;;;;;;;5002112;28;20209;-67
2023/07/21 03:13:22;;;;;;;3.10;1.52;;;;;;;;;;5004466;28;20213;-67
2023/07/21 03:15:50;;;;;;;1.33;1.20;;;;;;;;;;5000757;28;20235;-67
2023/07/21 03:18:17;;;;;;;2.30;1.50;;;;;;;;;;5003674;28;20209;-67
2023/07/21 03:20:45;;;;;;;1.75;1.50;;;;;;;;;;5000553;28;20296;-67
2023/07/21 03:23:14;;;;;;;2.10;1.50;;;;;;;;;;4998913;28;20225;-66
2023/07/21 03:25:43;;;;;;;1.77;1.30;;;;;;;;;;5004729;28;20219;-67
2023/07/21 03:28:10;;;;;;;2.35;1.40;;;;;;;;;;5000516;28;20220;-67
2023/07/21 03:30:37;;;;;;;1.95;1.35;;;;;;;;;;4997890;28;20216;-67
2023/07/21 03:33:04;;;;;;;1.67;1.50;;;;;;;;;;5000703;28;20201;-67
2023/07/21 03:35:31;;;;;;;1.73;1.60;;;;;;;;;;5004116;28;20225;-67
2023/07/21 03:38:00;;;;;;;1.55;1.45;;;;;;;;;;4999532;28;20211;-65
2023/07/21 03:40:27;;;;;;;1.77;1.40;;;;;;;;;;5003486;28;20209;-65
2023/07/21 03:42:54;;;;;;;1.60;1.35;;;;;;;;;;5003949;28;20205;-65
2023/07/21 03:45:21;;;;;;;1.42;1.33;;;;;;;;;;5000795;28;20235;-65
2023/07/21 03:47:49;;;;;;;1.67;1.38;;;;;;;;;;5001442;28;20285;-66
2023/07/21 03:50:16;;;;;;;1.55;1.40;;;;;;;;;;5004101;28;20209;-65
2023/07/21 03:52:43;;;;;;;1.70;1.60;;;;;;;;;;5000989;28;20204;-65
2023/07/21 03:55:11;;;;;;;4.63;1.77;;;;;;;;;;5003532;28;20229;-65
2023/07/21 03:57:39;;;;;;;1.70;1.60;;;;;;;;;;5004859;28;20220;-66
2023/07/21 04:00:08;;;;;;;1.95;1.50;;;;;;;;;;5004802;28;20210;-65
2023/07/21 04:02:35;;;;;;;1.83;1.40;;;;;;;;;;4999631;28;20205;-65
2023/07/21 04:05:02;;;;;;;2.47;1.42;;;;;;;;;;5005310;28;20204;-65
2023/07/21 04:07:29;;;;;;;2.42;1.42;;;;;;;;;;4999780;28;20206;-65
2023/07/21 04:09:58;;;;;;;1.90;1.70;;;;;;;;;;5006238;28;20214;-65
2023/07/21 04:12:28;;;;;;;1.60;1.50;;;;;;;;;;5001666;28;20197;-66
2023/07/21 04:14:55;;;;;;;1.70;1.50;;;;;;;;;;5003882;28;20295;-65
2023/07/21 04:17:23;;;;;;;2.78;1.58;;;;;;;;;;5003944;28;20204;-65
2023/07/21 04:19:50;;;;;;;1.85;1.30;;;;;;;;;;5000619;28;20213;-65
2023/07/21 04:22:17;;;;;;;1.40;1.30;;;;;;;;;;5001140;28;20220;-65
2023/07/21 04:24:46;;;;;;;1.60;1.50;;;;;;;;;;5006989;28;20279;-65
2023/07/21 04:27:13;;;;;;;2.28;1.40;;;;;;;;;;4997872;28;20273;-65
2023/07/21 04:29:41;;;;;;;1.90;1.73;;;;;;;;;;4997554;28;20209;-65
2023/07/21 04:32:08;;;;;;;1.50;1.40;;;;;;;;;;4997338;28;20208;-65
2023/07/21 04:34:36;;;;;;;1.73;1.45;;;;;;;;;;5004264;28;20231;-65
2023/07/21 04:37:03;;;;;;;1.60;1.48;;;;;;;;;;4999653;28;20209;-65
2023/07/21 04:39:30;;;;;;;1.58;1.48;;;;;;;;;;4998583;28;20275;-65
2023/07/21 04:41:58;;;;;;;1.73;1.63;;;;;;;;;;5003203;28;20212;-66
2023/07/21 04:44:25;;;;;;;1.67;1.50;;;;;;;;;;4995547;28;20249;-66
2023/07/21 04:46:53;;;;;;;3.75;1.50;;;;;;;;;;4996065;28;20193;-66
2023/07/21 04:49:21;;;;;;;1.50;1.38;;;;;;;;;;4993714;28;20206;-65
2023/07/21 04:51:48;;;;;;;2.90;1.70;;;;;;;;;;4997909;28;20216;-66
2023/07/21 04:54:15;;;;;;;3.30;1.73;;;;;;;;;;4995813;28;20235;-66
2023/07/21 04:56:44;;;;;;;4.53;1.88;;;;;;;;;;5003887;28;20231;-65
2023/07/21 04:59:11;;;;;;;2.60;1.88;;;;;;;;;;5003082;28;20224;-65
2023/07/21 05:01:38;;;;;;;3.30;1.60;;;;;;;;;;5003422;28;20219;-66
2023/07/21 05:04:07;;;;;;;2.00;1.70;;;;;;;;;;5001030;28;20197;-65
2023/07/21 05:06:34;;;;;;;1.67;1.58;;;;;;;;;;4998011;28;20201;-65
2023/07/21 05:09:01;;;;;;;2.58;1.67;;;;;;;;;;5005591;28;20215;-66
2023/07/21 05:11:28;;;;;;;2.97;1.80;;;;;;;;;;5006335;28;20213;-66
2023/07/21 05:13:56;;;;;;;1.70;1.60;;;;;;;;;;5008670;28;20216;-65
2023/07/21 05:16:23;;;;;;;2.67;1.50;;;;;;;;;;4999327;28;20233;-65
2023/07/21 05:18:51;;;;;;;1.88;1.40;;;;;;;;;;5007075;28;20202;-66
2023/07/21 05:21:19;;;;;;;2.50;1.88;;;;;;;;;;5003874;28;20276;-66
2023/07/21 05:23:46;;;;;;;1.98;1.60;;;;;;;;;;5005250;28;20227;-66
2023/07/21 05:26:14;;;;;;;1.85;1.58;;;;;;;;;;5000132;28;20200;-66
2023/07/21 05:28:41;;;;;;;4.38;1.77;;;;;;;;;;5006620;28;20213;-66
2023/07/21 05:31:11;;;;;;;1.52;1.40;;;;;;;;;;5004321;28;20209;-65
2023/07/21 05:33:39;;;;;;;1.95;1.73;;;;;;;;;;5000242;28;20201;-66
2023/07/21 05:36:08;;;;;;;3.42;1.73;;;;;;;;;;4996934;28;20303;-66
2023/07/21 05:38:37;;;;;;;2.10;1.70;;;;;;;;;;5001013;28;20216;-66
2023/07/21 05:41:04;;;;;;;2.22;1.70;;;;;;;;;;5000571;28;20201;-66
2023/07/21 05:43:31;;;;;;;2.20;1.45;;;;;;;;;;4996288;28;20215;-67
2023/07/21 05:45:59;;;;;;;2.33;1.50;;;;;;;;;;4999929;28;20232;-66
2023/07/21 05:48:26;;;;;;;1.85;1.52;;;;;;;;;;5003468;28;20208;-66
2023/07/21 05:50:53;;;;;;;2.65;1.80;;;;;;;;;;5001643;28;20212;-66
2023/07/21 05:53:20;;;;;;;2.30;1.90;;;;;;;;;;4999240;28;20205;-67
2023/07/21 05:55:50;;;;;;;4.05;1.52;;;;;;;;;;5000899;28;20224;-66
2023/07/21 05:58:18;;;;;;;2.80;1.85;;;;;;;;;;5005753;28;20227;-66
2023/07/21 06:00:46;;;;;;;3.55;1.88;;;;;;;;;;5002801;28;20209;-66
2023/07/21 06:03:13;;;;;;;2.30;1.60;;;;;;;;;;5003834;28;20209;-66
2023/07/21 06:05:40;;;;;;;3.38;1.58;;;;;;;;;;5002768;28;20200;-66
2023/07/21 06:08:07;;;;;;;2.53;1.52;;;;;;;;;;5004936;28;20202;-66
2023/07/21 06:10:35;;;;;;;3.10;1.70;;;;;;;;;;5009451;28;20213;-66
2023/07/21 06:13:04;;;;;;;2.28;1.80;;;;;;;;;;5005422;28;20233;-66
2023/07/21 06:15:31;;;;;;;2.10;1.60;;;;;;;;;;5008733;28;20229;-66
2023/07/21 06:17:58;;;;;;;3.22;1.50;;;;;;;;;;5003258;28;20197;-66
2023/07/21 06:20:26;;;;;;;4.40;1.70;;;;;;;;;;5004701;28;20282;-66
2023/07/21 06:22:53;;;;;;;2.83;1.50;;;;;;;;;;5006492;28;20209;-66
2023/07/21 06:25:20;;;;;;;2.67;1.65;;;;;;;;;;5006798;28;20197;-67
2023/07/21 06:27:48;;;;;;;1.70;1.55;;;;;;;;;;5009152;28;20212;-66
2023/07/21 06:30:17;;;;;;;2.47;1.65;;;;;;;;;;4997278;28;20246;-67
2023/07/21 06:32:44;;;;;;;4.30;1.33;;;;;;;;;;5007464;28;20201;-67
2023/07/21 06:35:11;;;;;;;5.53;1.70;;;;;;;;;;4999973;28;20200;-66
2023/07/21 06:37:39;;;;;;;2.70;1.58;;;;;;;;;;5013029;28;20205;-66
2023/07/21 06:40:06;;;;;;;1.70;1.60;;;;;;;;;;5003870;28;20205;-67
2023/07/21 06:42:34;;;;;;;2.28;1.75;;;;;;;;;;5000875;28;20202;-66
2023/07/21 06:45:01;;;;;;;2.85;1.70;;;;;;;;;;5003927;28;20259;-68
2023/07/21 06:47:29;;;;;;;3.20;1.80;;;;;;;;;;5006092;28;20463;-69
2023/07/21 06:49:57;;;;;;;1.88;1.60;;;;;;;;;;5005297;28;20208;-66
2023/07/21 06:52:24;;;;;;;2.28;1.60;;;;;;;;;;5009897;28;20205;-65
2023/07/21 06:54:51;;;;;;;3.33;1.88;;;;;;;;;;5006079;28;20213;-67
2023/07/21 06:57:19;;;;;;;3.75;1.90;;;;;;;;;;4994083;28;20259;-67
2023/07/21 06:59:46;;;;;;;2.58;1.67;;;;;;;;;;4999880;28;20251;-67
2023/07/21 07:02:14;;;;;;;3.70;2.00;;;;;;;;;;5006543;28;20277;-67
2023/07/21 07:04:42;;;;;;;3.03;1.73;;;;;;;;;;5000651;28;20288;-67
2023/07/21 07:07:09;;;;;;;3.28;1.63;;;;;;;;;;5008614;28;20211;-67
2023/07/21 07:09:36;;;;;;;1.60;1.50;;;;;;;;;;5002000;28;20221;-67
2023/07/21 07:12:04;;;;;;;3.38;1.75;;;;;;;;;;5006380;28;20209;-66
2023/07/21 07:14:31;;;;;;;1.90;1.65;;;;;;;;;;5006402;28;20255;-67
2023/07/21 07:16:58;;;;;;;1.98;1.63;;;;;;;;;;5004828;28;20224;-67
2023/07/21 07:19:25;;;;;;;2.45;1.70;;;;;;;;;;4999416;28;20224;-67
2023/07/21 07:21:54;;;;;;;2.45;1.55;;;;;;;;;;5002839;28;20212;-67
2023/07/21 07:24:21;;;;;;;2.65;1.95;;;;;;;;;;5006666;28;20209;-67
2023/07/21 07:26:48;;;;;;;3.35;1.83;;;;;;;;;;5003158;28;20211;-66
2023/07/21 07:29:16;;;;;;;2.13;1.90;;;;;;;;;;4997193;28;20219;-65
2023/07/21 07:31:43;;;;;;;2.72;1.92;;;;;;;;;;5001158;28;20205;-65
2023/07/21 07:34:10;;;;;;;4.22;1.80;;;;;;;;;;5008308;28;20204;-65
2023/07/21 07:36:37;;;;;;;2.10;1.80;;;;;;;;;;4999555;28;20331;-66
2023/07/21 07:39:06;;;;;;;1.92;1.77;;;;;;;;;;5000902;28;20295;-66
2023/07/21 07:41:33;;;;;;;2.63;1.98;;;;;;;;;;5005396;28;20216;-65
2023/07/21 07:44:00;;;;;;;3.92;1.90;;;;;;;;;;5002841;28;20197;-66
2023/07/21 07:46:28;;;;;;;3.40;1.70;;;;;;;;;;5002401;28;20201;-66
2023/07/21 07:48:55;;;;;;;2.63;1.88;;;;;;;;;;5001124;28;20216;-66
2023/07/21 07:51:22;;;;;;;2.15;1.60;;;;;;;;;;5008043;28;20209;-66
2023/07/21 07:53:52;;;;;;;2.10;1.92;;;;;;;;;;5001521;28;20232;-65
2023/07/21 07:56:23;;;;;;;2.97;1.60;;;;;;;;;;5003899;28;20251;-66
2023/07/21 07:58:54;;;;;;;1.98;1.80;;;;;;;;;;5006748;28;20240;-66
2023/07/21 08:01:22;;;;;;;2.92;1.80;;;;;;;;;;5000530;28;20205;-66
2023/07/21 08:03:50;;;;;;;3.00;1.80;;;;;;;;;;4999930;28;20209;-66
2023/07/21 08:06:18;;;;;;;2.75;1.90;;;;;;;;;;5004943;28;20236;-66
2023/07/21 08:08:45;;;;;;;6.30;2.15;;;;;;;;;;4998785;28;20209;-66
2023/07/21 08:11:13;;;;;;;3.05;1.88;;;;;;;;;;4999645;28;20204;-66
2023/07/21 08:13:42;;;;;;;2.03;1.90;;;;;;;;;;5000329;28;20216;-66
2023/07/21 08:16:11;;;;;;;5.63;1.80;;;;;;;;;;5001509;28;20274;-66
2023/07/21 08:18:39;;;;;;;2.30;2.10;;;;;;;;;;5004390;28;20215;-65
2023/07/21 08:21:20;;;;;;;3.55;2.20;;;;;;;;;;5002851;28;20220;-66
2023/07/21 08:23:51;;;;;;;5.07;2.10;;;;;;;;;;5005103;28;20290;-66
2023/07/21 08:26:19;;;;;;;4.30;2.00;;;;;;;;;;5000614;28;20205;-66
2023/07/21 08:28:48;;;;;;;5.82;2.20;;;;;;;;;;5005327;28;20210;-66
2023/07/21 08:31:16;;;;;;;2.20;2.00;;;;;;;;;;4999626;28;20219;-66
2023/07/21 08:33:43;;;;;;;3.95;1.83;;;;;;;;;;5005383;28;20210;-66
2023/07/21 08:36:10;;;;;;;4.45;2.05;;;;;;;;;;5008718;28;20232;-66
2023/07/21 08:38:38;;;;;;;7.00;2.30;;;;;;;;;;5007633;28;20212;-66
2023/07/21 08:41:07;;;;;;;3.90;1.92;;;;;;;;;;4984118;28;20428;-65
2023/07/21 08:43:34;;;;;;;3.65;2.00;;;;;;;;;;5009249;28;20204;-66
2023/07/21 08:46:05;;;;;;;3.95;1.80;;;;;;;;;;5003812;28;20241;-66
2023/07/21 08:48:32;;;;;;;5.05;1.70;;;;;;;;;;5011474;28;20251;-66
2023/07/21 08:51:00;;;;;;;3.38;1.85;;;;;;;;;;5015382;28;20217;-65
2023/07/21 08:53:28;;;;;;;1.98;1.80;;;;;;;;;;5002809;28;20232;-66
2023/07/21 08:55:55;;;;;;;2.97;1.63;;;;;;;;;;5000340;28;20209;-66
2023/07/21 08:58:23;;;;;;;1.60;1.50;;;;;;;;;;4999822;28;20205;-66
2023/07/21 09:00:51;;;;;;;4.45;1.73;;;;;;;;;;5006190;28;20211;-65
2023/07/21 09:03:24;;;;;;;2.75;1.63;;;;;;;;;;5007901;28;20213;-66
2023/07/21 09:05:51;;;;;;;2.63;1.40;;;;;;;;;;5008055;28;20311;-65
2023/07/21 09:08:19;;;;;;;2.08;1.30;;;;;;;;;;5007183;28;20272;-66
2023/07/21 09:10:47;;;;;;;2.90;1.48;;;;;;;;;;5006790;28;20213;-65
2023/07/21 09:13:15;;;;;;;2.80;1.80;;;;;;;;;;5007686;28;20213;-66
2023/07/21 09:15:42;;;;;;;2.38;1.60;;;;;;;;;;5009841;28;20223;-66
2023/07/21 09:18:10;;;;;;;2.80;1.65;;;;;;;;;;5007898;28;20236;-65
2023/07/21 09:20:39;;;;;;;1.95;1.70;;;;;;;;;;5006327;28;20212;-65
2023/07/21 09:23:07;;;;;;;3.63;1.60;;;;;;;;;;5008124;28;20204;-65
2023/07/21 09:25:35;;;;;;;2.08;1.73;;;;;;;;;;5002073;28;20205;-66
2023/07/21 09:28:03;;;;;;;3.80;1.65;;;;;;;;;;4998773;28;20283;-66
2023/07/21 09:30:32;;;;;;;3.42;1.75;;;;;;;;;;5002890;28;20213;-64
2023/07/21 09:33:01;;;;;;;2.47;1.70;;;;;;;;;;4999457;28;20212;-65
2023/07/21 09:35:31;;;;;;;2.35;1.75;;;;;;;;;;5002885;28;20204;-65
2023/07/21 09:38:01;;;;;;;2.78;1.73;;;;;;;;;;4988206;28;20227;-65
2023/07/21 09:40:30;;;;;;;6.95;1.70;;;;;;;;;;5002242;28;20209;-65
2023/07/21 09:43:00;;;;;;;3.30;2.03;;;;;;;;;;5006190;28;20216;-65
2023/07/21 09:45:31;;;;;;;4.65;2.58;;;;;;;;;;4999867;28;20232;-65
2023/07/21 09:48:10;;;;;;;2.85;2.20;;;;;;;;;;5003000;28;20202;-65
2023/07/21 09:50:38;;;;;;;5.32;2.47;;;;;;;;;;4998171;28;20229;-65
2023/07/21 09:53:09;;;;;;;2.45;2.25;;;;;;;;;;5006412;28;20209;-66
2023/07/21 09:55:41;;;;;;;5.55;2.50;;;;;;;;;;5009282;28;20209;-66
2023/07/21 09:58:11;;;;;;;3.33;1.83;;;;;;;;;;5007348;28;20239;-66
2023/07/21 10:00:40;;;;;;;2.00;1.80;;;;;;;;;;4983927;28;20201;-66
2023/07/21 10:03:09;;;;;;;2.78;1.88;;;;;;;;;;5004161;28;20240;-66
2023/07/21 10:05:39;;;;;;;2.13;1.80;;;;;;;;;;4999839;28;20217;-65
2023/07/21 10:08:21;;;;;;;5.93;2.20;;;;;;;;;;5006040;28;20204;-66
2023/07/21 10:10:50;;;;;;;3.10;1.90;;;;;;;;;;5004352;28;20260;-66
2023/07/21 10:13:23;;;;;;;1.80;1.58;;;;;;;;;;5008542;28;20209;-66
2023/07/21 10:15:52;;;;;;;3.50;2.17;;;;;;;;;;5008207;28;20208;-67
2023/07/21 10:18:21;;;;;;;3.55;1.90;;;;;;;;;;5002382;28;20284;-66
2023/07/21 10:20:50;;;;;;;4.40;3.30;;;;;;;;;;4998641;28;20261;-66
2023/07/21 10:23:28;;;;;;;2.60;2.20;;;;;;;;;;5004298;28;20204;-66
2023/07/21 10:26:04;;;;;;;2.80;2.45;;;;;;;;;;5005409;28;20332;-66
2023/07/21 10:31:36;;;;;;;4.28;2.65;;;;;;;;;;5006403;28;20218;-66
2023/07/21 10:34:05;;;;;;;4.45;2.30;;;;;;;;;;5003925;28;20251;-66
2023/07/21 10:36:48;;;;;;;2.45;2.25;;;;;;;;;;5005001;28;20211;-66
2023/07/21 10:39:26;;;;;;;4.20;2.10;;;;;;;;;;4999296;28;20255;-66
2023/07/21 10:41:59;;;;;;;1.95;1.83;;;;;;;;;;5011075;28;20209;-66
2023/07/21 10:44:33;;;;;;;2.78;2.30;;;;;;;;;;5012843;28;20248;-66
2023/07/21 10:47:00;;;;;;;2.95;1.92;;;;;;;;;;5002369;28;20240;-66
2023/07/21 10:49:27;;;;;;;3.13;2.30;;;;;;;;;;4990274;28;20205;-66
2023/07/21 10:51:54;;;;;;;4.55;2.25;;;;;;;;;;5004062;28;20208;-66
2023/07/21 10:54:23;;;;;;;2.75;2.20;;;;;;;;;;4998136;28;20200;-66
2023/07/21 10:56:51;;;;;;;2.10;2.00;;;;;;;;;;5010613;28;20228;-66
2023/07/21 10:59:19;;;;;;;4.47;2.10;;;;;;;;;;5002490;28;20201;-66
2023/07/21 11:01:47;;;;;;;2.45;2.15;;;;;;;;;;5005596;28;20205;-66
2023/07/21 11:04:15;;;;;;;3.42;2.00;;;;;;;;;;5005435;28;20288;-66
2023/07/21 11:06:43;;;;;;;4.00;2.20;;;;;;;;;;5001849;28;20205;-66
2023/07/21 11:09:11;;;;;;;6.25;2.22;;;;;;;;;;5004828;28;20213;-67
2023/07/21 11:11:40;;;;;;;2.50;2.20;;;;;;;;;;5003064;28;20205;-70
2023/07/21 11:14:11;;;;;;;4.13;2.28;;;;;;;;;;5011303;28;20200;-68
2023/07/21 11:16:43;;;;;;;2.78;2.20;;;;;;;;;;5004623;28;20218;-69
2023/07/21 11:19:10;;;;;;;2.05;1.83;;;;;;;;;;5003738;28;20286;-70
2023/07/21 11:21:37;;;;;;;5.18;2.00;;;;;;;;;;5011342;28;20208;-70
2023/07/21 11:24:04;;;;;;;2.20;1.85;;;;;;;;;;5004043;28;20272;-68
2023/07/21 11:26:32;;;;;;;2.42;1.95;;;;;;;;;;5009016;28;20196;-70
2023/07/21 11:29:01;;;;;;;2.58;1.83;;;;;;;;;;5010919;28;20299;-70
2023/07/21 11:31:32;;;;;;;2.05;1.85;;;;;;;;;;5006321;28;20201;-70
2023/07/21 11:33:59;;;;;;;3.20;1.85;;;;;;;;;;5006235;28;20206;-70
2023/07/21 11:36:29;;;;;;;1.70;1.58;;;;;;;;;;5009865;28;20232;-70
2023/07/21 11:39:00;;;;;;;2.65;1.80;;;;;;;;;;5007470;28;20226;-69
2023/07/21 11:41:36;;;;;;;3.78;1.92;;;;;;;;;;5009567;28;20220;-68
2023/07/21 11:44:06;;;;;;;4.40;1.70;;;;;;;;;;5002107;28;20250;-68
2023/07/21 11:46:34;;;;;;;2.13;1.77;;;;;;;;;;5007330;28;20272;-68
2023/07/21 11:49:01;;;;;;;1.70;1.60;;;;;;;;;;5002202;28;20190;-67
2023/07/21 11:51:29;;;;;;;1.60;1.50;;;;;;;;;;5002238;28;20201;-67
2023/07/21 11:53:58;;;;;;;2.05;1.30;;;;;;;;;;5001211;28;20323;-66
2023/07/21 11:56:25;;;;;;;1.33;1.23;;;;;;;;;;5000478;28;20204;-66
2023/07/21 11:58:52;;;;;;;1.80;1.30;;;;;;;;;;5002011;28;20227;-67
2023/07/21 12:01:21;;;;;;;2.40;1.50;;;;;;;;;;5008223;28;20205;-66
2023/07/21 12:03:48;;;;;;;1.67;1.58;;;;;;;;;;5005120;28;20297;-66
2023/07/21 12:06:15;;;;;;;3.75;1.70;;;;;;;;;;5000198;28;20213;-67
2023/07/21 12:08:42;;;;;;;4.35;1.65;;;;;;;;;;5004686;28;20207;-67
2023/07/21 12:11:09;;;;;;;3.70;1.75;;;;;;;;;;5003384;28;20216;-68
2023/07/21 12:13:37;;;;;;;3.58;1.70;;;;;;;;;;5007133;28;20286;-67
2023/07/21 12:16:04;;;;;;;1.60;1.50;;;;;;;;;;5006928;28;20219;-68
2023/07/21 12:18:33;;;;;;;2.33;1.80;;;;;;;;;;4999897;28;20217;-67
2023/07/21 12:21:00;;;;;;;3.65;1.70;;;;;;;;;;5006427;28;20208;-68
2023/07/21 12:23:27;;;;;;;3.10;1.80;;;;;;;;;;5003752;28;20206;-67
2023/07/21 12:25:54;;;;;;;2.47;1.42;;;;;;;;;;5002618;28;20204;-67
2023/07/21 12:28:21;;;;;;;1.67;1.13;;;;;;;;;;5005794;28;20211;-68
2023/07/21 12:30:49;;;;;;;3.38;1.55;;;;;;;;;;5004240;28;20216;-66
2023/07/21 12:33:16;;;;;;;4.03;1.35;;;;;;;;;;4999774;28;20213;-68
2023/07/21 12:35:45;;;;;;;1.85;1.33;;;;;;;;;;4991823;28;20204;-67
2023/07/21 12:38:13;;;;;;;1.30;1.30;;;;;;;;;;5001499;28;20228;-67
2023/07/21 12:40:41;;;;;;;1.88;1.30;;;;;;;;;;5001566;28;20206;-66
2023/07/21 12:43:08;;;;;;;1.30;1.20;;;;;;;;;;5004060;28;20224;-66
2023/07/21 12:45:35;;;;;;;2.58;1.30;;;;;;;;;;5005326;28;20236;-68
2023/07/21 12:48:03;;;;;;;1.50;1.20;;;;;;;;;;5000593;28;20204;-67
2023/07/21 12:50:30;;;;;;;1.00;1.00;;;;;;;;;;4999717;28;20217;-67
2023/07/21 12:52:58;;;;;;;1.40;1.30;;;;;;;;;;4997981;28;20210;-68
2023/07/21 12:55:25;;;;;;;1.20;1.20;;;;;;;;;;5004991;28;20206;-69
2023/07/21 12:57:53;;;;;;;1.42;1.33;;;;;;;;;;5002832;28;20313;-69
2023/07/21 13:00:21;;;;;;;1.15;1.00;;;;;;;;;;4999472;28;20201;-69
2023/07/21 13:02:48;;;;;;;1.00;1.00;;;;;;;;;;5001803;28;20206;-69
2023/07/21 13:05:15;;;;;;;1.17;1.08;;;;;;;;;;5001388;28;20209;-68
2023/07/21 13:07:42;;;;;;;1.25;1.15;;;;;;;;;;4997196;28;20211;-69
2023/07/21 13:10:11;;;;;;;1.30;1.20;;;;;;;;;;5000657;28;20243;-69
2023/07/21 13:12:39;;;;;;;1.40;1.08;;;;;;;;;;4997740;28;20205;-69
2023/07/21 13:15:07;;;;;;;1.50;1.40;;;;;;;;;;4997483;28;20248;-69
2023/07/21 13:17:37;;;;;;;2.17;1.13;;;;;;;;;;4999458;28;20300;-69
2023/07/21 13:20:05;;;;;;;2.67;1.20;;;;;;;;;;5002117;28;20311;-69
2023/07/21 13:22:33;;;;;;;1.65;1.30;;;;;;;;;;5009239;28;20215;-69
2023/07/21 13:25:00;;;;;;;2.17;1.38;;;;;;;;;;5008746;28;20205;-70
2023/07/21 13:27:29;;;;;;;1.52;1.17;;;;;;;;;;5001190;28;20212;-69
2023/07/21 13:29:56;;;;;;;1.40;1.30;;;;;;;;;;5006161;28;20201;-70
2023/07/21 13:32:23;;;;;;;1.55;1.40;;;;;;;;;;5006936;28;20226;-70
2023/07/21 13:34:51;;;;;;;3.33;1.30;;;;;;;;;;5004796;28;20204;-70
2023/07/21 13:37:18;;;;;;;2.47;1.40;;;;;;;;;;5003740;28;20209;-70
2023/07/21 13:39:45;;;;;;;1.40;1.30;;;;;;;;;;5000736;28;20204;-70
2023/07/21 13:42:13;;;;;;;1.58;1.20;;;;;;;;;;4992161;28;20211;-70
2023/07/21 13:44:42;;;;;;;1.77;1.30;;;;;;;;;;4996308;28;20247;-71
2023/07/21 13:47:10;;;;;;;1.00;0.95;;;;;;;;;;4980715;28;20213;-67
2023/07/21 13:49:38;;;;;;;1.27;1.17;;;;;;;;;;5004911;28;20204;-70
2023/07/21 13:52:06;;;;;;;3.42;1.25;;;;;;;;;;5004875;28;20200;-71
2023/07/21 13:54:35;;;;;;;2.45;1.20;;;;;;;;;;5004374;28;20205;-70
2023/07/21 13:57:03;;;;;;;1.40;1.30;;;;;;;;;;5003401;28;20243;-68
2023/07/21 13:59:31;;;;;;;1.40;1.30;;;;;;;;;;5002713;28;20224;-71
2023/07/21 14:01:59;;;;;;;2.25;1.20;;;;;;;;;;5007037;28;20204;-70
2023/07/21 14:04:27;;;;;;;1.00;1.00;;;;;;;;;;5008519;28;20208;-70
2023/07/21 14:06:54;;;;;;;1.48;1.15;;;;;;;;;;5003821;28;20213;-71
2023/07/21 14:09:22;;;;;;;2.15;1.10;;;;;;;;;;5004581;28;20347;-70
2023/07/21 14:11:49;;;;;;;1.17;1.08;;;;;;;;;;5004105;28;20209;-71
2023/07/21 14:14:16;;;;;;;1.13;1.00;;;;;;;;;;5002809;28;20217;-70
2023/07/21 14:16:44;;;;;;;1.30;1.20;;;;;;;;;;5007958;28;20204;-70
2023/07/21 14:19:14;;;;;;;1.00;1.00;;;;;;;;;;5003803;28;20230;-70
2023/07/21 14:21:42;;;;;;;2.00;1.17;;;;;;;;;;5003741;28;20224;-70
2023/07/21 14:24:09;;;;;;;1.15;1.10;;;;;;;;;;5004376;28;20197;-70
2023/07/21 14:26:36;;;;;;;1.40;1.30;;;;;;;;;;5004877;28;20197;-69
2023/07/21 14:29:04;;;;;;;3.40;1.27;;;;;;;;;;5005972;28;20201;-69
2023/07/21 14:31:33;;;;;;;1.30;1.20;;;;;;;;;;5002028;28;20297;-71
2023/07/21 14:34:00;;;;;;;1.33;1.23;;;;;;;;;;5004416;28;20258;-70
2023/07/21 14:36:29;;;;;;;5.63;1.40;;;;;;;;;;4999397;28;20205;-70
2023/07/21 14:38:56;;;;;;;1.60;1.10;;;;;;;;;;5001895;28;20319;-71
2023/07/21 14:41:24;;;;;;;1.45;1.17;;;;;;;;;;4999246;28;20198;-71
2023/07/21 14:43:51;;;;;;;2.45;1.30;;;;;;;;;;5001274;28;20208;-70
2023/07/21 14:46:18;;;;;;;1.50;1.40;;;;;;;;;;4999569;28;20243;-70
2023/07/21 14:48:46;;;;;;;2.05;1.17;;;;;;;;;;5004853;28;20198;-70
2023/07/21 14:51:13;;;;;;;2.13;1.38;;;;;;;;;;5006544;28;20292;-70
2023/07/21 14:53:42;;;;;;;1.15;1.05;;;;;;;;;;5008934;28;20205;-69
2023/07/21 14:56:09;;;;;;;2.20;1.10;;;;;;;;;;4995269;28;20205;-70
2023/07/21 14:58:37;;;;;;;1.20;1.10;;;;;;;;;;5003652;28;20225;-71
2023/07/21 15:01:04;;;;;;;1.30;1.20;;;;;;;;;;5004936;28;20217;-70
2023/07/21 15:03:31;;;;;;;0.95;0.95;;;;;;;;;;5005783;28;20213;-69
2023/07/21 15:05:59;;;;;;;4.15;1.13;;;;;;;;;;5002220;28;20220;-70